Snover, Michigan
Current Conditions -  °F | °C
As of 4:56 AM on Saturday 29 Nov 2014 (Local Time) from KBAX Reporting Station
Overcast Overcast  
Wind Chill: 19°   Ceiling: 2500
Heat Index: 29°   Visibility: 10mi
Dew Point: 26°   Wind: 13mph
Humidity: 90%   Direction: 170°S
Pressure: 29.97"   Gusts: NA
Location:  43.46°N, 82.97°W
Report Text: KBAX 290956Z AUTO 17011KT 10SM OVC025 M02/M03 A2997 RMK AO2 T10171032
Loading
Personal Weather Stations






























Interactive Weather Map New forecast layout! Learn more

10-Day Weather Forecast

Advertisements
Track Severe Weather on mobile